Portada
METAR-TAF:

METAR-TAF

Aeropuertos :

Aeropuerto de Varsovia-Chopin

Varsovia, Polonia

latitud: 52-10N, longitud: 020-58E, altitud: 106 m

Observación

El informe se hizo hace 24 minutos, a las 21:30 UTC
Viento 9 kt del norte-noroeste
Temperatura 13°C
Humedad 77%
Presión 1023 hPa
Visibilidad 10 km o más
sin nubes por debajo de 1500 m y sin presencia de cumulonimbus.

METAR: EPWA 282130Z 34009KT CAVOK 13/09 Q1023 NOSIG

Hora: 23:54 (21:54 UTC)

Pronóstico

El informe se hizo hace 1 hora y 24 minutos, a las 20:30 UTC
Pronóstico válido del 28 a las 21 UTC al 29 a las 21 UTC
Viento 10 kt del norte
Visibilidad 10 km o más
sin nubes por debajo de 1500 m y sin presencia de cumulonimbus.

TAF: EPWA 282030Z 2821/2921 35010KT CAVOK

Observaciones y pronósticos meteorológicos de más de 4000 aeropuertos (mensajes METAR y TAF).

Los puntos amarillos y rojos representan las estaciones disponibles.

Ponga el ratón en el punto deseado para ver el nombre de la estación.

Haga clic para ver las observaciones y los pronósticos meteorológicos.

Para cambiar el mapa : haga clic en los botones verdes con una cruz de color negro para hacer un zoom, en el botón verde con un guión para alejar o en las flechas verdes para mapas adyacentes.


METAR-TAF: